sensor_id;sensor_type;location;lat;lon;timestamp;pressure;altitude;pressure_sealevel;temperature
47484;BMP280;54076;50.322;18.650;2023-02-01T00:02:50;97676.27;;;-1.18
47484;BMP280;54076;50.322;18.650;2023-02-01T00:07:51;97657.92;;;-1.21
47484;BMP280;54076;50.322;18.650;2023-02-01T00:12:52;97649.69;;;-1.23
47484;BMP280;54076;50.322;18.650;2023-02-01T00:17:54;97647.23;;;-1.18
47484;BMP280;54076;50.322;18.650;2023-02-01T00:22:56;97647.91;;;-1.12
47484;BMP280;54076;50.322;18.650;2023-02-01T00:27:57;97642.52;;;-1.00
47484;BMP280;54076;50.322;18.650;2023-02-01T00:33:00;97627.30;;;-0.88
47484;BMP280;54076;50.322;18.650;2023-02-01T00:38:02;97617.45;;;-0.71
47484;BMP280;54076;50.322;18.650;2023-02-01T00:43:03;97643.35;;;-0.59
47484;BMP280;54076;50.322;18.650;2023-02-01T00:48:05;97722.52;;;-0.47
47484;BMP280;54076;50.322;18.650;2023-02-01T00:53:06;97763.90;;;-1.42
47484;BMP280;54076;50.322;18.650;2023-02-01T00:58:07;97769.04;;;-1.80
47484;BMP280;54076;50.322;18.650;2023-02-01T01:03:10;97767.47;;;-2.08
47484;BMP280;54076;50.322;18.650;2023-02-01T01:08:20;97772.95;;;-2.23
47484;BMP280;54076;50.322;18.650;2023-02-01T01:13:21;97789.92;;;-2.45
47484;BMP280;54076;50.322;18.650;2023-02-01T01:18:22;97772.60;;;-2.53
47484;BMP280;54076;50.322;18.650;2023-02-01T01:23:24;97772.00;;;-2.60
47484;BMP280;54076;50.322;18.650;2023-02-01T01:28:25;97809.48;;;-2.66
47484;BMP280;54076;50.322;18.650;2023-02-01T01:33:26;97820.42;;;-2.74
47484;BMP280;54076;50.322;18.650;2023-02-01T01:38:28;97794.84;;;-2.85
47484;BMP280;54076;50.322;18.650;2023-02-01T01:49:47;97787.10;;;-2.91
47484;BMP280;54076;50.322;18.650;2023-02-01T01:54:51;97771.65;;;-3.01
47484;BMP280;54076;50.322;18.650;2023-02-01T02:00:00;97748.34;;;-3.01
47484;BMP280;54076;50.322;18.650;2023-02-01T02:05:04;97756.66;;;-2.87
47484;BMP280;54076;50.322;18.650;2023-02-01T02:10:09;97755.42;;;-2.65
47484;BMP280;54076;50.322;18.650;2023-02-01T02:15:14;97755.10;;;-2.55
47484;BMP280;54076;50.322;18.650;2023-02-01T02:20:45;97753.73;;;-2.59
47484;BMP280;54076;50.322;18.650;2023-02-01T02:26:14;97760.17;;;-2.59
47484;BMP280;54076;50.322;18.650;2023-02-01T02:42:29;97774.43;;;-2.47
47484;BMP280;54076;50.322;18.650;2023-02-01T02:53:23;97762.38;;;-2.28
47484;BMP280;54076;50.322;18.650;2023-02-01T02:58:45;97760.73;;;-2.35
47484;BMP280;54076;50.322;18.650;2023-02-01T03:04:06;97760.27;;;-2.36
47484;BMP280;54076;50.322;18.650;2023-02-01T03:09:18;97755.98;;;-2.33
47484;BMP280;54076;50.322;18.650;2023-02-01T03:14:23;97777.60;;;-2.30
47484;BMP280;54076;50.322;18.650;2023-02-01T03:19:37;97778.35;;;-2.58
47484;BMP280;54076;50.322;18.650;2023-02-01T03:24:54;97787.73;;;-2.68
47484;BMP280;54076;50.322;18.650;2023-02-01T03:35:28;97793.58;;;-2.86
47484;BMP280;54076;50.322;18.650;2023-02-01T03:40:36;97798.04;;;-2.91
47484;BMP280;54076;50.322;18.650;2023-02-01T03:45:43;97790.69;;;-2.92
47484;BMP280;54076;50.322;18.650;2023-02-01T03:50:50;97785.33;;;-2.80
47484;BMP280;54076;50.322;18.650;2023-02-01T03:55:53;97781.53;;;-2.66
47484;BMP280;54076;50.322;18.650;2023-02-01T04:00:58;97768.55;;;-2.53
47484;BMP280;54076;50.322;18.650;2023-02-01T04:06:00;97770.76;;;-2.46
47484;BMP280;54076;50.322;18.650;2023-02-01T04:11:01;97769.00;;;-2.33
47484;BMP280;54076;50.322;18.650;2023-02-01T04:16:02;97763.33;;;-2.26
47484;BMP280;54076;50.322;18.650;2023-02-01T04:21:04;97760.33;;;-2.18
47484;BMP280;54076;50.322;18.650;2023-02-01T04:26:05;97755.77;;;-2.13
47484;BMP280;54076;50.322;18.650;2023-02-01T04:31:07;97748.95;;;-2.06
47484;BMP280;54076;50.322;18.650;2023-02-01T04:36:09;97742.42;;;-2.03
47484;BMP280;54076;50.322;18.650;2023-02-01T04:41:10;97742.56;;;-1.99
47484;BMP280;54076;50.322;18.650;2023-02-01T04:46:12;97744.20;;;-2.08
47484;BMP280;54076;50.322;18.650;2023-02-01T04:51:13;97740.29;;;-2.11
47484;BMP280;54076;50.322;18.650;2023-02-01T04:56:15;97741.84;;;-2.12
47484;BMP280;54076;50.322;18.650;2023-02-01T05:01:17;97732.73;;;-2.06
47484;BMP280;54076;50.322;18.650;2023-02-01T05:06:18;97736.88;;;-2.02
47484;BMP280;54076;50.322;18.650;2023-02-01T05:11:19;97727.48;;;-1.98
47484;BMP280;54076;50.322;18.650;2023-02-01T05:16:39;97736.42;;;-1.97
47484;BMP280;54076;50.322;18.650;2023-02-01T05:21:40;97729.91;;;-1.91
47484;BMP280;54076;50.322;18.650;2023-02-01T05:26:42;97727.98;;;-1.87
47484;BMP280;54076;50.322;18.650;2023-02-01T05:31:45;97717.11;;;-1.91
47484;BMP280;54076;50.322;18.650;2023-02-01T05:36:47;97718.14;;;-1.88
47484;BMP280;54076;50.322;18.650;2023-02-01T05:41:48;97716.02;;;-1.87
47484;BMP280;54076;50.322;18.650;2023-02-01T05:46:49;97712.47;;;-1.78
47484;BMP280;54076;50.322;18.650;2023-02-01T05:51:53;97716.14;;;-1.72
47484;BMP280;54076;50.322;18.650;2023-02-01T05:56:54;97710.95;;;-1.65
47484;BMP280;54076;50.322;18.650;2023-02-01T06:01:55;97709.46;;;-1.65
47484;BMP280;54076;50.322;18.650;2023-02-01T06:06:56;97714.63;;;-1.64
47484;BMP280;54076;50.322;18.650;2023-02-01T06:11:57;97718.36;;;-1.65
47484;BMP280;54076;50.322;18.650;2023-02-01T06:16:59;97718.94;;;-1.61
47484;BMP280;54076;50.322;18.650;2023-02-01T06:22:01;97724.60;;;-1.57
47484;BMP280;54076;50.322;18.650;2023-02-01T06:27:02;97724.90;;;-1.57
47484;BMP280;54076;50.322;18.650;2023-02-01T06:32:03;97736.12;;;-1.59
47484;BMP280;54076;50.322;18.650;2023-02-01T06:37:04;97734.20;;;-1.55
47484;BMP280;54076;50.322;18.650;2023-02-01T06:42:06;97727.55;;;-1.48
47484;BMP280;54076;50.322;18.650;2023-02-01T06:47:07;97720.37;;;-1.47
47484;BMP280;54076;50.322;18.650;2023-02-01T06:52:08;97710.06;;;-1.41
47484;BMP280;54076;50.322;18.650;2023-02-01T06:57:09;97707.84;;;-1.43
47484;BMP280;54076;50.322;18.650;2023-02-01T07:02:11;97709.90;;;-1.48
47484;BMP280;54076;50.322;18.650;2023-02-01T07:07:13;97707.80;;;-1.35
47484;BMP280;54076;50.322;18.650;2023-02-01T07:12:15;97699.94;;;-1.21
47484;BMP280;54076;50.322;18.650;2023-02-01T07:17:16;97705.21;;;-1.04
47484;BMP280;54076;50.322;18.650;2023-02-01T07:22:18;97709.95;;;-1.05
47484;BMP280;54076;50.322;18.650;2023-02-01T07:27:19;97713.06;;;-1.02
47484;BMP280;54076;50.322;18.650;2023-02-01T07:32:20;97716.61;;;-0.97
47484;BMP280;54076;50.322;18.650;2023-02-01T07:37:22;97713.40;;;-0.89
47484;BMP280;54076;50.322;18.650;2023-02-01T07:42:24;97714.75;;;-0.85
47484;BMP280;54076;50.322;18.650;2023-02-01T07:47:25;97717.17;;;-0.79
47484;BMP280;54076;50.322;18.650;2023-02-01T07:52:30;97715.83;;;-0.81
47484;BMP280;54076;50.322;18.650;2023-02-01T07:57:31;97716.95;;;-0.85
47484;BMP280;54076;50.322;18.650;2023-02-01T08:02:32;97713.50;;;-0.99
47484;BMP280;54076;50.322;18.650;2023-02-01T08:07:33;97719.11;;;-0.71
47484;BMP280;54076;50.322;18.650;2023-02-01T08:12:34;97714.27;;;-0.58
47484;BMP280;54076;50.322;18.650;2023-02-01T08:17:36;97711.45;;;-0.97
47484;BMP280;54076;50.322;18.650;2023-02-01T08:22:37;97710.48;;;-0.99
47484;BMP280;54076;50.322;18.650;2023-02-01T08:27:38;97713.92;;;-1.01
47484;BMP280;54076;50.322;18.650;2023-02-01T08:32:39;97718.55;;;-1.05
47484;BMP280;54076;50.322;18.650;2023-02-01T08:37:41;97720.08;;;-1.06
47484;BMP280;54076;50.322;18.650;2023-02-01T08:42:42;97721.13;;;-1.10
47484;BMP280;54076;50.322;18.650;2023-02-01T08:47:53;97713.31;;;-0.97
47484;BMP280;54076;50.322;18.650;2023-02-01T08:52:54;97712.73;;;-0.88
47484;BMP280;54076;50.322;18.650;2023-02-01T08:57:56;97712.14;;;-0.80
47484;BMP280;54076;50.322;18.650;2023-02-01T09:02:57;97711.75;;;-0.79
47484;BMP280;54076;50.322;18.650;2023-02-01T09:07:59;97717.00;;;-0.75
47484;BMP280;54076;50.322;18.650;2023-02-01T09:13:01;97710.80;;;-0.65
47484;BMP280;54076;50.322;18.650;2023-02-01T09:18:02;97705.19;;;-0.42
47484;BMP280;54076;50.322;18.650;2023-02-01T09:23:03;97707.75;;;-0.35
47484;BMP280;54076;50.322;18.650;2023-02-01T09:39:13;97687.27;;;0.10
47484;BMP280;54076;50.322;18.650;2023-02-01T09:49:48;97676.60;;;0.36
47484;BMP280;54076;50.322;18.650;2023-02-01T09:55:04;97670.58;;;0.49
47484;BMP280;54076;50.322;18.650;2023-02-01T10:00:17;97667.06;;;0.73
47484;BMP280;54076;50.322;18.650;2023-02-01T10:10:56;97661.52;;;0.58
47484;BMP280;54076;50.322;18.650;2023-02-01T10:16:16;97664.00;;;0.55
47484;BMP280;54076;50.322;18.650;2023-02-01T10:26:42;97658.77;;;0.54
47484;BMP280;54076;50.322;18.650;2023-02-01T10:31:46;97655.45;;;0.51
47484;BMP280;54076;50.322;18.650;2023-02-01T10:37:01;97651.86;;;0.51
47484;BMP280;54076;50.322;18.650;2023-02-01T10:42:03;97647.46;;;0.67
47484;BMP280;54076;50.322;18.650;2023-02-01T10:47:05;97647.02;;;0.65
47484;BMP280;54076;50.322;18.650;2023-02-01T10:57:26;97636.64;;;0.56
47484;BMP280;54076;50.322;18.650;2023-02-01T11:02:33;97633.09;;;0.60
47484;BMP280;54076;50.322;18.650;2023-02-01T11:07:36;97638.68;;;0.79
47484;BMP280;54076;50.322;18.650;2023-02-01T11:12:38;97635.61;;;0.87
47484;BMP280;54076;50.322;18.650;2023-02-01T11:17:45;97631.35;;;0.91
47484;BMP280;54076;50.322;18.650;2023-02-01T11:22:53;97619.41;;;1.02
47484;BMP280;54076;50.322;18.650;2023-02-01T11:27:55;97612.23;;;1.27
47484;BMP280;54076;50.322;18.650;2023-02-01T11:32:57;97613.44;;;1.48
47484;BMP280;54076;50.322;18.650;2023-02-01T11:38:00;97608.02;;;1.29
47484;BMP280;54076;50.322;18.650;2023-02-01T11:43:25;97608.14;;;1.15
47484;BMP280;54076;50.322;18.650;2023-02-01T11:48:31;97594.52;;;1.29
47484;BMP280;54076;50.322;18.650;2023-02-01T12:05:38;97575.02;;;1.11
47484;BMP280;54076;50.322;18.650;2023-02-01T12:16:15;97571.33;;;0.92
47484;BMP280;54076;50.322;18.650;2023-02-01T12:37:58;97534.48;;;1.03
47484;BMP280;54076;50.322;18.650;2023-02-01T12:43:13;97522.70;;;1.25
47484;BMP280;54076;50.322;18.650;2023-02-01T12:48:32;97527.33;;;1.16
47484;BMP280;54076;50.322;18.650;2023-02-01T12:54:19;97513.84;;;0.81
47484;BMP280;54076;50.322;18.650;2023-02-01T12:59:52;97502.85;;;0.50
47484;BMP280;54076;50.322;18.650;2023-02-01T13:05:22;97502.41;;;0.47
47484;BMP280;54076;50.322;18.650;2023-02-01T13:10:43;97492.09;;;0.60
47484;BMP280;54076;50.322;18.650;2023-02-01T13:16:23;97496.10;;;0.51
47484;BMP280;54076;50.322;18.650;2023-02-01T13:21:33;97492.25;;;0.41
47484;BMP280;54076;50.322;18.650;2023-02-01T13:26:35;97492.90;;;0.36
47484;BMP280;54076;50.322;18.650;2023-02-01T13:32:08;97501.39;;;0.07
47484;BMP280;54076;50.322;18.650;2023-02-01T13:43:02;97520.93;;;-0.65
47484;BMP280;54076;50.322;18.650;2023-02-01T13:48:06;97513.05;;;-0.67
47484;BMP280;54076;50.322;18.650;2023-02-01T13:58:22;97524.56;;;-0.64
47484;BMP280;54076;50.322;18.650;2023-02-01T14:29:36;97515.05;;;-1.42
47484;BMP280;54076;50.322;18.650;2023-02-01T14:34:49;97520.39;;;-1.23
47484;BMP280;54076;50.322;18.650;2023-02-01T15:00:52;97538.39;;;-0.79
47484;BMP280;54076;50.322;18.650;2023-02-01T15:05:58;97534.02;;;-0.66
47484;BMP280;54076;50.322;18.650;2023-02-01T15:11:15;97545.06;;;-0.52
47484;BMP280;54076;50.322;18.650;2023-02-01T15:16:17;97558.11;;;-0.50
47484;BMP280;54076;50.322;18.650;2023-02-01T15:21:23;97556.00;;;-0.54
47484;BMP280;54076;50.322;18.650;2023-02-01T15:26:31;97556.16;;;-0.55
47484;BMP280;54076;50.322;18.650;2023-02-01T15:31:39;97562.35;;;-0.46
47484;BMP280;54076;50.322;18.650;2023-02-01T15:36:43;97562.67;;;-0.40
47484;BMP280;54076;50.322;18.650;2023-02-01T15:47:26;97568.11;;;-0.73
47484;BMP280;54076;50.322;18.650;2023-02-01T15:52:39;97572.02;;;-0.71
47484;BMP280;54076;50.322;18.650;2023-02-01T15:57:42;97575.88;;;-0.69
47484;BMP280;54076;50.322;18.650;2023-02-01T16:02:56;97580.34;;;-0.68
47484;BMP280;54076;50.322;18.650;2023-02-01T16:08:19;97577.14;;;-0.63
47484;BMP280;54076;50.322;18.650;2023-02-01T16:13:22;97576.45;;;-0.50
47484;BMP280;54076;50.322;18.650;2023-02-01T16:18:23;97572.20;;;-0.44
47484;BMP280;54076;50.322;18.650;2023-02-01T16:23:24;97575.71;;;-0.44
47484;BMP280;54076;50.322;18.650;2023-02-01T16:28:27;97565.89;;;-0.44
47484;BMP280;54076;50.322;18.650;2023-02-01T16:33:28;97561.77;;;-0.51
47484;BMP280;54076;50.322;18.650;2023-02-01T16:38:29;97565.29;;;-0.64
47484;BMP280;54076;50.322;18.650;2023-02-01T16:43:32;97586.48;;;-0.78
47484;BMP280;54076;50.322;18.650;2023-02-01T16:48:36;97597.56;;;-0.78
47484;BMP280;54076;50.322;18.650;2023-02-01T16:53:37;97603.41;;;-0.62
47484;BMP280;54076;50.322;18.650;2023-02-01T16:58:39;97608.77;;;-0.65
47484;BMP280;54076;50.322;18.650;2023-02-01T17:03:42;97606.05;;;-0.74
47484;BMP280;54076;50.322;18.650;2023-02-01T17:08:51;97599.11;;;-0.82
47484;BMP280;54076;50.322;18.650;2023-02-01T17:13:53;97592.89;;;-0.97
47484;BMP280;54076;50.322;18.650;2023-02-01T17:19:04;97601.73;;;-0.84
47484;BMP280;54076;50.322;18.650;2023-02-01T17:24:06;97611.60;;;-0.81
47484;BMP280;54076;50.322;18.650;2023-02-01T17:29:08;97612.48;;;-0.83
47484;BMP280;54076;50.322;18.650;2023-02-01T17:34:14;97617.02;;;-0.82
47484;BMP280;54076;50.322;18.650;2023-02-01T17:39:16;97604.67;;;-0.88
47484;BMP280;54076;50.322;18.650;2023-02-01T17:44:36;97597.62;;;-0.94
47484;BMP280;54076;50.322;18.650;2023-02-01T17:49:38;97607.33;;;-0.92
47484;BMP280;54076;50.322;18.650;2023-02-01T17:54:39;97605.36;;;-0.90
47484;BMP280;54076;50.322;18.650;2023-02-01T17:59:40;97596.45;;;-0.83
47484;BMP280;54076;50.322;18.650;2023-02-01T18:04:41;97594.02;;;-0.80
47484;BMP280;54076;50.322;18.650;2023-02-01T18:09:42;97581.23;;;-0.88
47484;BMP280;54076;50.322;18.650;2023-02-01T18:14:43;97577.84;;;-0.86
47484;BMP280;54076;50.322;18.650;2023-02-01T18:19:45;97571.16;;;-0.82
47484;BMP280;54076;50.322;18.650;2023-02-01T18:24:46;97577.83;;;-0.73
47484;BMP280;54076;50.322;18.650;2023-02-01T18:29:47;97591.70;;;-0.69
47484;BMP280;54076;50.322;18.650;2023-02-01T18:34:48;97576.67;;;-0.74
47484;BMP280;54076;50.322;18.650;2023-02-01T18:39:49;97575.41;;;-0.85
47484;BMP280;54076;50.322;18.650;2023-02-01T18:44:50;97576.34;;;-0.82
47484;BMP280;54076;50.322;18.650;2023-02-01T18:49:51;97566.90;;;-0.81
47484;BMP280;54076;50.322;18.650;2023-02-01T18:54:53;97565.34;;;-0.67
47484;BMP280;54076;50.322;18.650;2023-02-01T18:59:54;97560.16;;;-0.59
47484;BMP280;54076;50.322;18.650;2023-02-01T19:04:55;97551.47;;;-0.58
47484;BMP280;54076;50.322;18.650;2023-02-01T19:09:57;97534.48;;;-0.53
47484;BMP280;54076;50.322;18.650;2023-02-01T19:14:59;97526.77;;;-0.62
47484;BMP280;54076;50.322;18.650;2023-02-01T19:20:01;97521.88;;;-0.79
47484;BMP280;54076;50.322;18.650;2023-02-01T19:25:05;97515.15;;;-0.69
47484;BMP280;54076;50.322;18.650;2023-02-01T19:30:09;97511.49;;;-0.78
47484;BMP280;54076;50.322;18.650;2023-02-01T19:35:15;97495.80;;;-0.87
47484;BMP280;54076;50.322;18.650;2023-02-01T19:40:19;97489.52;;;-0.86
47484;BMP280;54076;50.322;18.650;2023-02-01T19:45:21;97487.59;;;-0.86
47484;BMP280;54076;50.322;18.650;2023-02-01T19:50:22;97479.15;;;-0.94
47484;BMP280;54076;50.322;18.650;2023-02-01T19:55:24;97461.67;;;-0.94
47484;BMP280;54076;50.322;18.650;2023-02-01T20:00:25;97446.13;;;-0.92
47484;BMP280;54076;50.322;18.650;2023-02-01T20:05:26;97441.17;;;-0.94
47484;BMP280;54076;50.322;18.650;2023-02-01T20:10:28;97433.48;;;-1.00
47484;BMP280;54076;50.322;18.650;2023-02-01T20:15:29;97421.55;;;-0.84
47484;BMP280;54076;50.322;18.650;2023-02-01T20:20:30;97434.35;;;-0.77
47484;BMP280;54076;50.322;18.650;2023-02-01T20:25:31;97455.39;;;-0.85
47484;BMP280;54076;50.322;18.650;2023-02-01T20:30:32;97457.75;;;-1.00
47484;BMP280;54076;50.322;18.650;2023-02-01T20:35:34;97449.08;;;-1.13
47484;BMP280;54076;50.322;18.650;2023-02-01T20:40:36;97434.15;;;-1.27
47484;BMP280;54076;50.322;18.650;2023-02-01T20:45:39;97428.29;;;-1.59
47484;BMP280;54076;50.322;18.650;2023-02-01T20:50:41;97419.89;;;-1.72
47484;BMP280;54076;50.322;18.650;2023-02-01T20:55:42;97402.14;;;-1.72
47484;BMP280;54076;50.322;18.650;2023-02-01T21:00:44;97400.30;;;-1.77
47484;BMP280;54076;50.322;18.650;2023-02-01T21:05:54;97384.31;;;-1.73
47484;BMP280;54076;50.322;18.650;2023-02-01T21:11:08;97377.81;;;-1.82
47484;BMP280;54076;50.322;18.650;2023-02-01T21:16:12;97366.27;;;-1.87
47484;BMP280;54076;50.322;18.650;2023-02-01T21:21:15;97361.14;;;-1.67
47484;BMP280;54076;50.322;18.650;2023-02-01T21:26:20;97355.02;;;-1.62
47484;BMP280;54076;50.322;18.650;2023-02-01T21:31:22;97350.52;;;-1.54
47484;BMP280;54076;50.322;18.650;2023-02-01T21:36:25;97348.02;;;-1.47
47484;BMP280;54076;50.322;18.650;2023-02-01T21:41:33;97346.27;;;-1.43
47484;BMP280;54076;50.322;18.650;2023-02-01T21:46:53;97340.14;;;-1.45
47484;BMP280;54076;50.322;18.650;2023-02-01T21:51:57;97336.67;;;-1.39
47484;BMP280;54076;50.322;18.650;2023-02-01T21:56:58;97331.48;;;-1.35
47484;BMP280;54076;50.322;18.650;2023-02-01T22:01:59;97338.36;;;-1.33
47484;BMP280;54076;50.322;18.650;2023-02-01T22:07:01;97330.09;;;-1.28
47484;BMP280;54076;50.322;18.650;2023-02-01T22:12:03;97327.92;;;-1.21
47484;BMP280;54076;50.322;18.650;2023-02-01T22:17:04;97323.52;;;-1.15
47484;BMP280;54076;50.322;18.650;2023-02-01T22:22:05;97331.27;;;-1.11
47484;BMP280;54076;50.322;18.650;2023-02-01T22:27:06;97336.02;;;-1.00
47484;BMP280;54076;50.322;18.650;2023-02-01T22:32:07;97349.10;;;-0.97
47484;BMP280;54076;50.322;18.650;2023-02-01T22:37:09;97360.33;;;-1.11
47484;BMP280;54076;50.322;18.650;2023-02-01T22:42:10;97364.56;;;-1.32
47484;BMP280;54076;50.322;18.650;2023-02-01T22:47:11;97378.09;;;-1.66
47484;BMP280;54076;50.322;18.650;2023-02-01T22:52:12;97378.49;;;-1.75
47484;BMP280;54076;50.322;18.650;2023-02-01T22:57:13;97383.15;;;-2.13
47484;BMP280;54076;50.322;18.650;2023-02-01T23:02:14;97385.14;;;-2.24
47484;BMP280;54076;50.322;18.650;2023-02-01T23:07:16;97381.69;;;-2.55
47484;BMP280;54076;50.322;18.650;2023-02-01T23:12:17;97382.77;;;-2.61
47484;BMP280;54076;50.322;18.650;2023-02-01T23:17:18;97390.80;;;-2.61
47484;BMP280;54076;50.322;18.650;2023-02-01T23:22:19;97393.59;;;-2.55
47484;BMP280;54076;50.322;18.650;2023-02-01T23:27:20;97396.48;;;-2.50
47484;BMP280;54076;50.322;18.650;2023-02-01T23:32:22;97399.16;;;-2.65
47484;BMP280;54076;50.322;18.650;2023-02-01T23:37:23;97393.06;;;-2.67
47484;BMP280;54076;50.322;18.650;2023-02-01T23:42:25;97394.81;;;-2.70
47484;BMP280;54076;50.322;18.650;2023-02-01T23:47:26;97397.63;;;-2.69
47484;BMP280;54076;50.322;18.650;2023-02-01T23:52:27;97394.85;;;-2.75
47484;BMP280;54076;50.322;18.650;2023-02-01T23:57:28;97392.85;;;-2.81
